Terminal Aerodrome Forecast
Issued by NWS

Home | Current Version | Previous Version | Text Only | Print | Product List | Glossary On
Versions: 1 2 3 4 5 6 7 8 9 10 11 12 13 14 15 16 17 18 19 20
000
FTUS46 KMFR 021140
TAFRBG
TAF
KRBG 021140Z 0212/0312 36003KT P6SM SCT030 OVC060
     FM021200 36002KT P6SM -SHRA SCT006 BKN015 OVC040
     FM021700 35005KT P6SM BKN035
     FM022000 36010KT P6SM SCT050 BKN100=

USA.gov is the U.S. government's official web portal to all federal, state and local government web resources and services.